CheckWX is a tool to help pilots better visualize weather data.  It is not intended as a substitute for an official pre-flight weather briefing.

05:36:47 UTC

KPHT METAR
Henry County Airport
Paris, Tennessee, USA
Current

22 mins ago

KPHT 280515Z AUTO 22008KT 10SM SCT070 OVC080 03/M02 A3014 RMK A01
Observed
Feb-28 @ 05:15 UTC
Wind
  • 220° at 8 KTS
Visibility
10 SM
Flight Rules
VFR
Cloud Levels
  • Scattered at 7,000' AGL
  • Overcast at 8,000' AGL
Temperature
C / 37°F
Dewpoint
-2°C / 28°F
Humidity
70%
Altimeter
30.14" Hg
Pressure
1020.62 hPa
Previous

42 mins ago

KPHT 280455Z AUTO 22008KT 10SM BKN075 OVC085 03/M02 A3014 RMK A01
Observed
Feb-28 @ 04:55 UTC
Wind
  • 220° at 8 KTS
Visibility
10 SM
Flight Rules
VFR
Cloud Levels
  • Broken at 7,500' AGL
  • Overcast at 8,500' AGL
Temperature
C / 37°F
Dewpoint
-2°C / 28°F
Humidity
70%
Altimeter
30.14" Hg
Pressure
1020.62 hPa
Previous

1 hour ago

KPHT 280435Z AUTO 22008KT 10SM BKN075 OVC085 03/M02 A3014 RMK A01
Observed
Feb-28 @ 04:35 UTC
Wind
  • 220° at 8 KTS
Visibility
10 SM
Flight Rules
VFR
Cloud Levels
  • Broken at 7,500' AGL
  • Overcast at 8,500' AGL
Temperature
C / 37°F
Dewpoint
-2°C / 28°F
Humidity
70%
Altimeter
30.14" Hg
Pressure
1020.62 hPa